sensor_id;sensor_type;location;lat;lon;timestamp;P1;durP1;ratioP1;P2;durP2;ratioP2
45208;SDS011;30951;43.994;26.260;2023-11-19T00:00:27;3.88;;;2.45;;
45208;SDS011;30951;43.994;26.260;2023-11-19T00:02:53;7.97;;;4.35;;
45208;SDS011;30951;43.994;26.260;2023-11-19T00:05:19;6.07;;;3.20;;
45208;SDS011;30951;43.994;26.260;2023-11-19T00:07:44;6.80;;;3.17;;
45208;SDS011;30951;43.994;26.260;2023-11-19T00:10:13;3.08;;;2.30;;
45208;SDS011;30951;43.994;26.260;2023-11-19T00:12:44;2.65;;;1.98;;
45208;SDS011;30951;43.994;26.260;2023-11-19T00:15:10;3.05;;;2.38;;
45208;SDS011;30951;43.994;26.260;2023-11-19T00:17:37;3.08;;;2.38;;
45208;SDS011;30951;43.994;26.260;2023-11-19T00:20:05;2.17;;;1.98;;
45208;SDS011;30951;43.994;26.260;2023-11-19T00:22:32;2.88;;;2.30;;
45208;SDS011;30951;43.994;26.260;2023-11-19T00:24:58;3.70;;;2.20;;
45208;SDS011;30951;43.994;26.260;2023-11-19T00:27:24;2.20;;;2.00;;
45208;SDS011;30951;43.994;26.260;2023-11-19T00:29:51;3.33;;;2.00;;
45208;SDS011;30951;43.994;26.260;2023-11-19T00:32:16;2.58;;;2.30;;
45208;SDS011;30951;43.994;26.260;2023-11-19T00:34:45;2.58;;;2.38;;
45208;SDS011;30951;43.994;26.260;2023-11-19T00:37:15;2.75;;;2.33;;
45208;SDS011;30951;43.994;26.260;2023-11-19T00:39:41;2.95;;;2.55;;
45208;SDS011;30951;43.994;26.260;2023-11-19T00:42:07;6.35;;;2.42;;
45208;SDS011;30951;43.994;26.260;2023-11-19T00:44:33;3.13;;;2.35;;
45208;SDS011;30951;43.994;26.260;2023-11-19T00:46:58;4.05;;;3.20;;
45208;SDS011;30951;43.994;26.260;2023-11-19T00:49:25;3.83;;;3.25;;
45208;SDS011;30951;43.994;26.260;2023-11-19T00:51:50;4.13;;;2.90;;
45208;SDS011;30951;43.994;26.260;2023-11-19T00:54:16;3.55;;;2.88;;
45208;SDS011;30951;43.994;26.260;2023-11-19T00:56:41;3.10;;;2.50;;
45208;SDS011;30951;43.994;26.260;2023-11-19T00:59:07;3.20;;;2.80;;
45208;SDS011;30951;43.994;26.260;2023-11-19T01:01:32;3.65;;;2.83;;
45208;SDS011;30951;43.994;26.260;2023-11-19T01:03:58;3.55;;;2.67;;
45208;SDS011;30951;43.994;26.260;2023-11-19T01:06:30;3.83;;;2.70;;
45208;SDS011;30951;43.994;26.260;2023-11-19T01:08:56;3.03;;;2.53;;
45208;SDS011;30951;43.994;26.260;2023-11-19T01:11:22;2.90;;;2.30;;
45208;SDS011;30951;43.994;26.260;2023-11-19T01:13:48;2.58;;;2.38;;
45208;SDS011;30951;43.994;26.260;2023-11-19T01:16:15;4.25;;;2.50;;
45208;SDS011;30951;43.994;26.260;2023-11-19T01:18:40;3.38;;;2.75;;
45208;SDS011;30951;43.994;26.260;2023-11-19T01:21:06;4.10;;;2.72;;
45208;SDS011;30951;43.994;26.260;2023-11-19T01:23:31;3.58;;;2.50;;
45208;SDS011;30951;43.994;26.260;2023-11-19T01:25:58;4.90;;;2.75;;
45208;SDS011;30951;43.994;26.260;2023-11-19T01:28:23;3.90;;;2.90;;
45208;SDS011;30951;43.994;26.260;2023-11-19T01:30:52;3.85;;;3.13;;
45208;SDS011;30951;43.994;26.260;2023-11-19T01:33:18;4.65;;;2.80;;
45208;SDS011;30951;43.994;26.260;2023-11-19T01:35:43;3.35;;;2.33;;
45208;SDS011;30951;43.994;26.260;2023-11-19T01:38:09;4.30;;;3.53;;
45208;SDS011;30951;43.994;26.260;2023-11-19T01:40:34;3.08;;;2.78;;
45208;SDS011;30951;43.994;26.260;2023-11-19T01:43:02;5.00;;;3.80;;
45208;SDS011;30951;43.994;26.260;2023-11-19T01:45:28;3.97;;;2.95;;
45208;SDS011;30951;43.994;26.260;2023-11-19T01:47:59;3.75;;;2.95;;
45208;SDS011;30951;43.994;26.260;2023-11-19T01:50:26;3.42;;;2.80;;
45208;SDS011;30951;43.994;26.260;2023-11-19T01:52:53;3.55;;;2.63;;
45208;SDS011;30951;43.994;26.260;2023-11-19T01:55:22;4.13;;;2.88;;
45208;SDS011;30951;43.994;26.260;2023-11-19T01:57:48;5.50;;;2.50;;
45208;SDS011;30951;43.994;26.260;2023-11-19T02:00:14;4.07;;;3.13;;
45208;SDS011;30951;43.994;26.260;2023-11-19T02:02:41;3.28;;;2.63;;
45208;SDS011;30951;43.994;26.260;2023-11-19T02:05:07;3.83;;;3.05;;
45208;SDS011;30951;43.994;26.260;2023-11-19T02:07:32;3.85;;;3.30;;
45208;SDS011;30951;43.994;26.260;2023-11-19T02:09:58;3.42;;;3.00;;
45208;SDS011;30951;43.994;26.260;2023-11-19T02:12:25;3.50;;;3.05;;
45208;SDS011;30951;43.994;26.260;2023-11-19T02:14:53;3.83;;;3.28;;
45208;SDS011;30951;43.994;26.260;2023-11-19T02:17:29;3.40;;;3.10;;
45208;SDS011;30951;43.994;26.260;2023-11-19T02:19:59;5.03;;;4.15;;
45208;SDS011;30951;43.994;26.260;2023-11-19T02:22:25;5.72;;;4.30;;
45208;SDS011;30951;43.994;26.260;2023-11-19T02:24:51;7.10;;;5.00;;
45208;SDS011;30951;43.994;26.260;2023-11-19T02:29:54;6.93;;;4.60;;
45208;SDS011;30951;43.994;26.260;2023-11-19T02:32:19;6.30;;;4.22;;
45208;SDS011;30951;43.994;26.260;2023-11-19T02:34:45;7.45;;;5.38;;
45208;SDS011;30951;43.994;26.260;2023-11-19T02:37:11;7.50;;;4.70;;
45208;SDS011;30951;43.994;26.260;2023-11-19T02:39:37;4.32;;;3.92;;
45208;SDS011;30951;43.994;26.260;2023-11-19T02:42:02;6.63;;;4.07;;
45208;SDS011;30951;43.994;26.260;2023-11-19T02:44:28;5.60;;;4.57;;
45208;SDS011;30951;43.994;26.260;2023-11-19T02:46:55;7.20;;;3.90;;
45208;SDS011;30951;43.994;26.260;2023-11-19T02:49:24;8.63;;;4.10;;
45208;SDS011;30951;43.994;26.260;2023-11-19T02:51:50;10.20;;;4.40;;
45208;SDS011;30951;43.994;26.260;2023-11-19T02:54:15;9.20;;;4.22;;
45208;SDS011;30951;43.994;26.260;2023-11-19T02:56:44;4.70;;;3.20;;
45208;SDS011;30951;43.994;26.260;2023-11-19T02:59:13;5.43;;;3.50;;
45208;SDS011;30951;43.994;26.260;2023-11-19T03:01:52;4.85;;;3.10;;
45208;SDS011;30951;43.994;26.260;2023-11-19T03:04:18;5.47;;;2.60;;
45208;SDS011;30951;43.994;26.260;2023-11-19T03:06:45;3.40;;;2.72;;
45208;SDS011;30951;43.994;26.260;2023-11-19T03:09:11;3.00;;;2.65;;
45208;SDS011;30951;43.994;26.260;2023-11-19T03:11:37;3.35;;;2.60;;
45208;SDS011;30951;43.994;26.260;2023-11-19T03:14:03;4.25;;;2.90;;
45208;SDS011;30951;43.994;26.260;2023-11-19T03:16:28;4.22;;;2.92;;
45208;SDS011;30951;43.994;26.260;2023-11-19T03:18:54;4.00;;;3.17;;
45208;SDS011;30951;43.994;26.260;2023-11-19T03:21:26;4.00;;;3.22;;
45208;SDS011;30951;43.994;26.260;2023-11-19T03:23:53;6.00;;;3.47;;
45208;SDS011;30951;43.994;26.260;2023-11-19T03:26:18;4.70;;;3.08;;
45208;SDS011;30951;43.994;26.260;2023-11-19T03:28:44;6.07;;;3.70;;
45208;SDS011;30951;43.994;26.260;2023-11-19T03:31:09;4.43;;;3.67;;
45208;SDS011;30951;43.994;26.260;2023-11-19T03:33:35;4.82;;;3.50;;
45208;SDS011;30951;43.994;26.260;2023-11-19T03:36:00;5.28;;;3.60;;
45208;SDS011;30951;43.994;26.260;2023-11-19T03:38:26;6.80;;;3.92;;
45208;SDS011;30951;43.994;26.260;2023-11-19T03:40:51;4.10;;;3.70;;
45208;SDS011;30951;43.994;26.260;2023-11-19T03:43:17;5.82;;;4.13;;
45208;SDS011;30951;43.994;26.260;2023-11-19T03:45:44;5.70;;;4.10;;
45208;SDS011;30951;43.994;26.260;2023-11-19T03:48:09;7.82;;;4.93;;
45208;SDS011;30951;43.994;26.260;2023-11-19T03:50:35;6.60;;;4.50;;
45208;SDS011;30951;43.994;26.260;2023-11-19T03:53:00;8.93;;;5.70;;
45208;SDS011;30951;43.994;26.260;2023-11-19T03:55:27;8.07;;;5.55;;
45208;SDS011;30951;43.994;26.260;2023-11-19T03:57:54;9.40;;;5.70;;
45208;SDS011;30951;43.994;26.260;2023-11-19T04:00:20;9.30;;;5.50;;
45208;SDS011;30951;43.994;26.260;2023-11-19T04:02:46;8.50;;;5.60;;
45208;SDS011;30951;43.994;26.260;2023-11-19T04:05:12;10.95;;;6.15;;
45208;SDS011;30951;43.994;26.260;2023-11-19T04:07:37;10.73;;;5.35;;
45208;SDS011;30951;43.994;26.260;2023-11-19T04:10:03;7.50;;;5.88;;
45208;SDS011;30951;43.994;26.260;2023-11-19T04:12:29;8.35;;;5.95;;
45208;SDS011;30951;43.994;26.260;2023-11-19T04:14:54;9.93;;;7.13;;
45208;SDS011;30951;43.994;26.260;2023-11-19T04:17:21;11.77;;;7.35;;
45208;SDS011;30951;43.994;26.260;2023-11-19T04:19:48;12.05;;;6.72;;
45208;SDS011;30951;43.994;26.260;2023-11-19T04:22:13;12.10;;;7.80;;
45208;SDS011;30951;43.994;26.260;2023-11-19T04:24:39;8.85;;;6.32;;
45208;SDS011;30951;43.994;26.260;2023-11-19T04:27:05;9.88;;;7.30;;
45208;SDS011;30951;43.994;26.260;2023-11-19T04:29:31;10.05;;;6.85;;
45208;SDS011;30951;43.994;26.260;2023-11-19T04:31:57;9.50;;;6.68;;
45208;SDS011;30951;43.994;26.260;2023-11-19T04:34:23;9.23;;;6.55;;
45208;SDS011;30951;43.994;26.260;2023-11-19T04:36:49;11.02;;;6.53;;
45208;SDS011;30951;43.994;26.260;2023-11-19T04:39:14;8.73;;;5.90;;
45208;SDS011;30951;43.994;26.260;2023-11-19T04:41:50;7.60;;;6.53;;
45208;SDS011;30951;43.994;26.260;2023-11-19T04:44:18;9.73;;;7.00;;
45208;SDS011;30951;43.994;26.260;2023-11-19T04:46:44;9.38;;;6.90;;
45208;SDS011;30951;43.994;26.260;2023-11-19T04:49:10;9.80;;;6.55;;
45208;SDS011;30951;43.994;26.260;2023-11-19T04:51:42;7.93;;;6.28;;
45208;SDS011;30951;43.994;26.260;2023-11-19T04:54:09;9.90;;;6.68;;
45208;SDS011;30951;43.994;26.260;2023-11-19T04:56:35;9.73;;;6.65;;
45208;SDS011;30951;43.994;26.260;2023-11-19T04:59:02;13.25;;;6.97;;
45208;SDS011;30951;43.994;26.260;2023-11-19T05:01:28;10.23;;;7.28;;
45208;SDS011;30951;43.994;26.260;2023-11-19T05:03:55;10.60;;;6.60;;
45208;SDS011;30951;43.994;26.260;2023-11-19T05:06:25;11.65;;;6.72;;
45208;SDS011;30951;43.994;26.260;2023-11-19T05:08:54;9.27;;;6.53;;
45208;SDS011;30951;43.994;26.260;2023-11-19T05:11:20;11.05;;;6.95;;
45208;SDS011;30951;43.994;26.260;2023-11-19T05:13:46;9.82;;;6.80;;
45208;SDS011;30951;43.994;26.260;2023-11-19T05:16:11;10.32;;;6.72;;
45208;SDS011;30951;43.994;26.260;2023-11-19T05:18:40;12.02;;;6.53;;
45208;SDS011;30951;43.994;26.260;2023-11-19T05:21:06;9.40;;;6.18;;
45208;SDS011;30951;43.994;26.260;2023-11-19T05:23:34;10.95;;;6.75;;
45208;SDS011;30951;43.994;26.260;2023-11-19T05:26:01;12.80;;;6.10;;
45208;SDS011;30951;43.994;26.260;2023-11-19T05:28:26;9.70;;;6.57;;
45208;SDS011;30951;43.994;26.260;2023-11-19T05:30:52;10.23;;;7.28;;
45208;SDS011;30951;43.994;26.260;2023-11-19T05:33:17;13.45;;;6.95;;
45208;SDS011;30951;43.994;26.260;2023-11-19T05:35:43;8.68;;;6.15;;
45208;SDS011;30951;43.994;26.260;2023-11-19T05:38:08;7.50;;;5.40;;
45208;SDS011;30951;43.994;26.260;2023-11-19T05:40:34;10.13;;;5.68;;
45208;SDS011;30951;43.994;26.260;2023-11-19T05:43:00;9.90;;;6.63;;
45208;SDS011;30951;43.994;26.260;2023-11-19T05:45:26;8.35;;;5.80;;
45208;SDS011;30951;43.994;26.260;2023-11-19T05:47:52;9.40;;;6.07;;
45208;SDS011;30951;43.994;26.260;2023-11-19T05:50:17;8.60;;;6.28;;
45208;SDS011;30951;43.994;26.260;2023-11-19T05:52:43;11.20;;;7.07;;
45208;SDS011;30951;43.994;26.260;2023-11-19T05:55:09;8.85;;;6.45;;
45208;SDS011;30951;43.994;26.260;2023-11-19T05:57:38;12.27;;;7.25;;
45208;SDS011;30951;43.994;26.260;2023-11-19T06:00:05;14.88;;;7.53;;
45208;SDS011;30951;43.994;26.260;2023-11-19T06:02:35;9.75;;;6.50;;
45208;SDS011;30951;43.994;26.260;2023-11-19T06:05:03;12.25;;;7.85;;
45208;SDS011;30951;43.994;26.260;2023-11-19T06:07:31;13.02;;;9.02;;
45208;SDS011;30951;43.994;26.260;2023-11-19T06:09:57;11.57;;;8.27;;
45208;SDS011;30951;43.994;26.260;2023-11-19T06:12:22;14.25;;;7.25;;
45208;SDS011;30951;43.994;26.260;2023-11-19T06:14:48;10.75;;;8.15;;
45208;SDS011;30951;43.994;26.260;2023-11-19T06:17:13;12.73;;;7.53;;
45208;SDS011;30951;43.994;26.260;2023-11-19T06:19:39;10.50;;;7.25;;
45208;SDS011;30951;43.994;26.260;2023-11-19T06:22:04;10.43;;;7.88;;
45208;SDS011;30951;43.994;26.260;2023-11-19T06:24:30;10.65;;;7.15;;
45208;SDS011;30951;43.994;26.260;2023-11-19T06:26:55;13.52;;;8.10;;
45208;SDS011;30951;43.994;26.260;2023-11-19T06:29:21;10.88;;;7.85;;
45208;SDS011;30951;43.994;26.260;2023-11-19T06:31:46;11.38;;;8.00;;
45208;SDS011;30951;43.994;26.260;2023-11-19T06:34:15;10.27;;;7.55;;
45208;SDS011;30951;43.994;26.260;2023-11-19T06:36:41;11.27;;;7.60;;
45208;SDS011;30951;43.994;26.260;2023-11-19T06:39:08;9.80;;;7.40;;
45208;SDS011;30951;43.994;26.260;2023-11-19T06:41:34;17.95;;;8.95;;
45208;SDS011;30951;43.994;26.260;2023-11-19T06:43:59;9.35;;;6.45;;
45208;SDS011;30951;43.994;26.260;2023-11-19T06:46:25;8.95;;;7.00;;
45208;SDS011;30951;43.994;26.260;2023-11-19T06:48:50;8.48;;;6.50;;
45208;SDS011;30951;43.994;26.260;2023-11-19T06:51:16;9.82;;;6.60;;
45208;SDS011;30951;43.994;26.260;2023-11-19T06:53:45;9.20;;;5.95;;
45208;SDS011;30951;43.994;26.260;2023-11-19T06:56:20;8.52;;;6.10;;
45208;SDS011;30951;43.994;26.260;2023-11-19T06:58:46;7.85;;;5.70;;
45208;SDS011;30951;43.994;26.260;2023-11-19T07:01:13;6.90;;;4.50;;
45208;SDS011;30951;43.994;26.260;2023-11-19T07:03:40;6.53;;;4.47;;
45208;SDS011;30951;43.994;26.260;2023-11-19T07:06:05;7.10;;;4.47;;
45208;SDS011;30951;43.994;26.260;2023-11-19T07:08:31;6.05;;;4.60;;
45208;SDS011;30951;43.994;26.260;2023-11-19T07:10:57;6.10;;;4.53;;
45208;SDS011;30951;43.994;26.260;2023-11-19T07:13:22;5.18;;;4.07;;
45208;SDS011;30951;43.994;26.260;2023-11-19T07:15:48;4.80;;;3.95;;
45208;SDS011;30951;43.994;26.260;2023-11-19T07:18:13;6.10;;;4.43;;
45208;SDS011;30951;43.994;26.260;2023-11-19T07:20:39;5.93;;;3.92;;
45208;SDS011;30951;43.994;26.260;2023-11-19T07:23:05;5.05;;;4.13;;
45208;SDS011;30951;43.994;26.260;2023-11-19T07:25:31;6.43;;;4.68;;
45208;SDS011;30951;43.994;26.260;2023-11-19T07:27:56;5.13;;;4.25;;
45208;SDS011;30951;43.994;26.260;2023-11-19T07:30:22;6.97;;;4.22;;
45208;SDS011;30951;43.994;26.260;2023-11-19T07:32:47;5.20;;;4.15;;
45208;SDS011;30951;43.994;26.260;2023-11-19T07:35:13;7.20;;;3.95;;
45208;SDS011;30951;43.994;26.260;2023-11-19T07:37:41;6.65;;;4.22;;
45208;SDS011;30951;43.994;26.260;2023-11-19T07:40:07;5.18;;;3.97;;
45208;SDS011;30951;43.994;26.260;2023-11-19T07:42:33;5.80;;;4.22;;
45208;SDS011;30951;43.994;26.260;2023-11-19T07:44:59;4.22;;;3.80;;
45208;SDS011;30951;43.994;26.260;2023-11-19T07:47:25;5.40;;;4.25;;
45208;SDS011;30951;43.994;26.260;2023-11-19T07:49:51;6.97;;;5.05;;
45208;SDS011;30951;43.994;26.260;2023-11-19T07:52:16;5.28;;;4.20;;
45208;SDS011;30951;43.994;26.260;2023-11-19T07:54:42;7.28;;;4.22;;
45208;SDS011;30951;43.994;26.260;2023-11-19T07:57:07;5.95;;;4.15;;
45208;SDS011;30951;43.994;26.260;2023-11-19T07:59:33;6.07;;;4.10;;
45208;SDS011;30951;43.994;26.260;2023-11-19T08:01:58;6.32;;;4.63;;
45208;SDS011;30951;43.994;26.260;2023-11-19T08:04:24;6.63;;;4.03;;
45208;SDS011;30951;43.994;26.260;2023-11-19T08:06:49;5.15;;;4.03;;
45208;SDS011;30951;43.994;26.260;2023-11-19T08:09:15;5.93;;;4.03;;
45208;SDS011;30951;43.994;26.260;2023-11-19T08:11:41;5.95;;;4.40;;
45208;SDS011;30951;43.994;26.260;2023-11-19T08:14:06;7.00;;;4.70;;
45208;SDS011;30951;43.994;26.260;2023-11-19T08:16:32;5.88;;;5.25;;
45208;SDS011;30951;43.994;26.260;2023-11-19T08:18:57;5.22;;;4.32;;
45208;SDS011;30951;43.994;26.260;2023-11-19T08:21:23;6.10;;;4.55;;
45208;SDS011;30951;43.994;26.260;2023-11-19T08:23:49;7.35;;;4.80;;
45208;SDS011;30951;43.994;26.260;2023-11-19T08:26:15;6.57;;;4.78;;
45208;SDS011;30951;43.994;26.260;2023-11-19T08:28:41;8.25;;;4.82;;
45208;SDS011;30951;43.994;26.260;2023-11-19T08:31:06;4.95;;;4.25;;
45208;SDS011;30951;43.994;26.260;2023-11-19T08:33:32;8.75;;;4.72;;
45208;SDS011;30951;43.994;26.260;2023-11-19T08:35:57;6.30;;;4.50;;
45208;SDS011;30951;43.994;26.260;2023-11-19T08:38:24;6.45;;;4.45;;
45208;SDS011;30951;43.994;26.260;2023-11-19T08:40:50;5.70;;;5.00;;
45208;SDS011;30951;43.994;26.260;2023-11-19T08:43:17;6.70;;;5.82;;
45208;SDS011;30951;43.994;26.260;2023-11-19T08:45:42;6.80;;;4.82;;
45208;SDS011;30951;43.994;26.260;2023-11-19T08:48:08;9.40;;;5.00;;
45208;SDS011;30951;43.994;26.260;2023-11-19T08:50:34;6.07;;;4.80;;
45208;SDS011;30951;43.994;26.260;2023-11-19T08:53:00;9.23;;;4.53;;
45208;SDS011;30951;43.994;26.260;2023-11-19T08:55:25;4.00;;;3.53;;
45208;SDS011;30951;43.994;26.260;2023-11-19T08:57:51;5.20;;;4.13;;
45208;SDS011;30951;43.994;26.260;2023-11-19T09:00:17;3.80;;;2.63;;
45208;SDS011;30951;43.994;26.260;2023-11-19T09:02:43;5.50;;;2.75;;
45208;SDS011;30951;43.994;26.260;2023-11-19T09:05:08;2.55;;;2.35;;
45208;SDS011;30951;43.994;26.260;2023-11-19T09:07:34;3.58;;;2.40;;
45208;SDS011;30951;43.994;26.260;2023-11-19T09:09:59;3.95;;;2.60;;
45208;SDS011;30951;43.994;26.260;2023-11-19T09:12:25;5.20;;;3.28;;
45208;SDS011;30951;43.994;26.260;2023-11-19T09:14:50;5.40;;;3.40;;
45208;SDS011;30951;43.994;26.260;2023-11-19T09:17:16;4.97;;;2.65;;
45208;SDS011;30951;43.994;26.260;2023-11-19T09:19:43;6.47;;;3.70;;
45208;SDS011;30951;43.994;26.260;2023-11-19T09:22:08;6.93;;;3.22;;
45208;SDS011;30951;43.994;26.260;2023-11-19T09:24:34;10.82;;;2.80;;
45208;SDS011;30951;43.994;26.260;2023-11-19T09:26:59;5.53;;;2.45;;
45208;SDS011;30951;43.994;26.260;2023-11-19T09:29:25;3.22;;;2.20;;
45208;SDS011;30951;43.994;26.260;2023-11-19T09:31:50;3.75;;;2.55;;
45208;SDS011;30951;43.994;26.260;2023-11-19T09:34:16;3.13;;;2.15;;
45208;SDS011;30951;43.994;26.260;2023-11-19T09:36:42;3.25;;;2.40;;
45208;SDS011;30951;43.994;26.260;2023-11-19T09:39:12;4.25;;;3.88;;
45208;SDS011;30951;43.994;26.260;2023-11-19T09:41:43;2.85;;;2.35;;
45208;SDS011;30951;43.994;26.260;2023-11-19T09:44:10;2.22;;;2.03;;
45208;SDS011;30951;43.994;26.260;2023-11-19T09:46:37;2.40;;;1.88;;
45208;SDS011;30951;43.994;26.260;2023-11-19T09:49:04;8.63;;;6.72;;
45208;SDS011;30951;43.994;26.260;2023-11-19T09:51:32;2.20;;;1.92;;
45208;SDS011;30951;43.994;26.260;2023-11-19T09:53:58;2.88;;;2.15;;
45208;SDS011;30951;43.994;26.260;2023-11-19T09:56:23;2.70;;;2.10;;
45208;SDS011;30951;43.994;26.260;2023-11-19T09:58:49;3.03;;;2.15;;
45208;SDS011;30951;43.994;26.260;2023-11-19T10:01:15;2.72;;;2.10;;
45208;SDS011;30951;43.994;26.260;2023-11-19T10:03:40;2.80;;;1.80;;
45208;SDS011;30951;43.994;26.260;2023-11-19T10:06:07;2.30;;;1.77;;
45208;SDS011;30951;43.994;26.260;2023-11-19T10:08:33;6.68;;;4.03;;
45208;SDS011;30951;43.994;26.260;2023-11-19T10:10:59;4.55;;;2.92;;
45208;SDS011;30951;43.994;26.260;2023-11-19T10:13:26;4.00;;;2.05;;
45208;SDS011;30951;43.994;26.260;2023-11-19T10:15:53;2.42;;;2.00;;
45208;SDS011;30951;43.994;26.260;2023-11-19T10:18:26;6.15;;;3.30;;
45208;SDS011;30951;43.994;26.260;2023-11-19T10:20:52;4.93;;;2.50;;
45208;SDS011;30951;43.994;26.260;2023-11-19T10:23:20;2.88;;;2.10;;
45208;SDS011;30951;43.994;26.260;2023-11-19T10:25:45;3.20;;;2.55;;
45208;SDS011;30951;43.994;26.260;2023-11-19T10:28:12;3.88;;;2.60;;
45208;SDS011;30951;43.994;26.260;2023-11-19T10:30:41;4.10;;;1.92;;
45208;SDS011;30951;43.994;26.260;2023-11-19T10:33:07;3.30;;;2.55;;
45208;SDS011;30951;43.994;26.260;2023-11-19T10:35:52;3.90;;;2.35;;
45208;SDS011;30951;43.994;26.260;2023-11-19T10:38:18;3.10;;;1.80;;
45208;SDS011;30951;43.994;26.260;2023-11-19T10:40:44;3.70;;;1.92;;
45208;SDS011;30951;43.994;26.260;2023-11-19T10:43:10;5.55;;;1.58;;
45208;SDS011;30951;43.994;26.260;2023-11-19T10:45:36;3.08;;;1.95;;
45208;SDS011;30951;43.994;26.260;2023-11-19T10:48:06;2.92;;;2.00;;
45208;SDS011;30951;43.994;26.260;2023-11-19T10:50:32;1.85;;;1.58;;
45208;SDS011;30951;43.994;26.260;2023-11-19T10:53:01;3.67;;;1.50;;
45208;SDS011;30951;43.994;26.260;2023-11-19T10:55:29;1.73;;;1.42;;
45208;SDS011;30951;43.994;26.260;2023-11-19T10:57:58;1.48;;;1.35;;
45208;SDS011;30951;43.994;26.260;2023-11-19T11:00:33;1.83;;;1.52;;
45208;SDS011;30951;43.994;26.260;2023-11-19T11:03:04;3.70;;;1.35;;
45208;SDS011;30951;43.994;26.260;2023-11-19T11:05:35;1.42;;;1.33;;
45208;SDS011;30951;43.994;26.260;2023-11-19T11:08:02;1.77;;;1.30;;
45208;SDS011;30951;43.994;26.260;2023-11-19T11:10:30;3.45;;;1.10;;
45208;SDS011;30951;43.994;26.260;2023-11-19T11:12:59;3.88;;;2.13;;
45208;SDS011;30951;43.994;26.260;2023-11-19T11:15:28;3.13;;;2.83;;
45208;SDS011;30951;43.994;26.260;2023-11-19T11:17:59;3.10;;;2.33;;
45208;SDS011;30951;43.994;26.260;2023-11-19T11:20:27;3.20;;;2.13;;
45208;SDS011;30951;43.994;26.260;2023-11-19T11:26:13;2.08;;;1.83;;
45208;SDS011;30951;43.994;26.260;2023-11-19T11:28:52;4.55;;;2.20;;
45208;SDS011;30951;43.994;26.260;2023-11-19T11:39:30;4.00;;;3.08;;
45208;SDS011;30951;43.994;26.260;2023-11-19T11:44:58;3.03;;;2.00;;
45208;SDS011;30951;43.994;26.260;2023-11-19T11:50:19;3.45;;;2.35;;
45208;SDS011;30951;43.994;26.260;2023-11-19T11:55:24;5.50;;;2.00;;
45208;SDS011;30951;43.994;26.260;2023-11-19T11:57:50;4.00;;;3.60;;
45208;SDS011;30951;43.994;26.260;2023-11-19T12:00:22;7.13;;;4.18;;
45208;SDS011;30951;43.994;26.260;2023-11-19T12:02:51;4.93;;;2.58;;
45208;SDS011;30951;43.994;26.260;2023-11-19T12:05:17;2.95;;;2.13;;
45208;SDS011;30951;43.994;26.260;2023-11-19T12:07:45;3.28;;;2.17;;
45208;SDS011;30951;43.994;26.260;2023-11-19T12:10:29;5.28;;;2.88;;
45208;SDS011;30951;43.994;26.260;2023-11-19T12:12:58;7.25;;;3.40;;
45208;SDS011;30951;43.994;26.260;2023-11-19T12:15:25;5.35;;;3.90;;
45208;SDS011;30951;43.994;26.260;2023-11-19T12:17:52;4.93;;;3.28;;
45208;SDS011;30951;43.994;26.260;2023-11-19T12:20:20;3.97;;;2.25;;
45208;SDS011;30951;43.994;26.260;2023-11-19T12:22:47;3.55;;;2.53;;
45208;SDS011;30951;43.994;26.260;2023-11-19T12:25:14;3.67;;;2.35;;
45208;SDS011;30951;43.994;26.260;2023-11-19T12:30:07;3.10;;;2.10;;
45208;SDS011;30951;43.994;26.260;2023-11-19T12:32:37;3.45;;;2.42;;
45208;SDS011;30951;43.994;26.260;2023-11-19T12:35:04;3.25;;;2.53;;
45208;SDS011;30951;43.994;26.260;2023-11-19T12:37:29;2.38;;;1.75;;
45208;SDS011;30951;43.994;26.260;2023-11-19T12:39:57;2.45;;;1.95;;
45208;SDS011;30951;43.994;26.260;2023-11-19T12:42:36;3.97;;;2.90;;
45208;SDS011;30951;43.994;26.260;2023-11-19T12:45:02;6.40;;;3.88;;
45208;SDS011;30951;43.994;26.260;2023-11-19T12:47:29;3.95;;;3.30;;
45208;SDS011;30951;43.994;26.260;2023-11-19T12:49:55;5.03;;;3.20;;
45208;SDS011;30951;43.994;26.260;2023-11-19T12:52:22;3.90;;;2.67;;
45208;SDS011;30951;43.994;26.260;2023-11-19T12:54:48;2.38;;;2.10;;
45208;SDS011;30951;43.994;26.260;2023-11-19T12:57:15;4.07;;;2.65;;
45208;SDS011;30951;43.994;26.260;2023-11-19T12:59:41;5.32;;;3.20;;
45208;SDS011;30951;43.994;26.260;2023-11-19T13:02:08;7.05;;;4.55;;
45208;SDS011;30951;43.994;26.260;2023-11-19T13:04:34;9.73;;;5.03;;
45208;SDS011;30951;43.994;26.260;2023-11-19T13:07:00;6.22;;;3.63;;
45208;SDS011;30951;43.994;26.260;2023-11-19T13:09:26;3.13;;;2.70;;
45208;SDS011;30951;43.994;26.260;2023-11-19T13:11:53;5.13;;;2.55;;
45208;SDS011;30951;43.994;26.260;2023-11-19T13:14:20;3.50;;;2.70;;
45208;SDS011;30951;43.994;26.260;2023-11-19T13:16:46;2.90;;;2.50;;
45208;SDS011;30951;43.994;26.260;2023-11-19T13:19:13;4.20;;;3.55;;
45208;SDS011;30951;43.994;26.260;2023-11-19T13:21:41;5.88;;;3.03;;
45208;SDS011;30951;43.994;26.260;2023-11-19T13:24:07;8.93;;;5.80;;
45208;SDS011;30951;43.994;26.260;2023-11-19T13:26:33;5.45;;;3.25;;
45208;SDS011;30951;43.994;26.260;2023-11-19T13:29:00;7.28;;;6.03;;
45208;SDS011;30951;43.994;26.260;2023-11-19T13:31:26;30.75;;;17.83;;
45208;SDS011;30951;43.994;26.260;2023-11-19T13:33:51;6.53;;;5.35;;
45208;SDS011;30951;43.994;26.260;2023-11-19T13:36:17;2.72;;;2.33;;
45208;SDS011;30951;43.994;26.260;2023-11-19T13:38:44;5.97;;;5.25;;
45208;SDS011;30951;43.994;26.260;2023-11-19T13:41:10;4.60;;;3.45;;
45208;SDS011;30951;43.994;26.260;2023-11-19T13:43:36;6.97;;;3.90;;
45208;SDS011;30951;43.994;26.260;2023-11-19T13:46:02;7.70;;;3.58;;
45208;SDS011;30951;43.994;26.260;2023-11-19T13:48:29;3.65;;;2.67;;
45208;SDS011;30951;43.994;26.260;2023-11-19T13:50:55;6.15;;;3.45;;
45208;SDS011;30951;43.994;26.260;2023-11-19T13:53:21;6.28;;;3.70;;
45208;SDS011;30951;43.994;26.260;2023-11-19T13:55:48;4.28;;;3.55;;
45208;SDS011;30951;43.994;26.260;2023-11-19T13:58:13;4.05;;;2.92;;
45208;SDS011;30951;43.994;26.260;2023-11-19T14:00:39;6.45;;;4.50;;
45208;SDS011;30951;43.994;26.260;2023-11-19T14:03:07;6.38;;;4.75;;
45208;SDS011;30951;43.994;26.260;2023-11-19T14:05:33;14.80;;;8.85;;
45208;SDS011;30951;43.994;26.260;2023-11-19T14:07:58;11.25;;;6.47;;
45208;SDS011;30951;43.994;26.260;2023-11-19T14:10:26;10.73;;;7.55;;
45208;SDS011;30951;43.994;26.260;2023-11-19T14:12:52;9.75;;;6.05;;
45208;SDS011;30951;43.994;26.260;2023-11-19T14:15:18;8.50;;;5.68;;
45208;SDS011;30951;43.994;26.260;2023-11-19T14:17:44;9.43;;;6.50;;
45208;SDS011;30951;43.994;26.260;2023-11-19T14:20:09;7.07;;;4.70;;
45208;SDS011;30951;43.994;26.260;2023-11-19T14:22:40;18.00;;;11.43;;
45208;SDS011;30951;43.994;26.260;2023-11-19T14:25:08;8.65;;;5.57;;
45208;SDS011;30951;43.994;26.260;2023-11-19T14:27:38;9.10;;;5.47;;
45208;SDS011;30951;43.994;26.260;2023-11-19T14:30:05;8.43;;;5.38;;
45208;SDS011;30951;43.994;26.260;2023-11-19T14:32:31;8.07;;;5.80;;
45208;SDS011;30951;43.994;26.260;2023-11-19T14:34:57;10.80;;;8.93;;
45208;SDS011;30951;43.994;26.260;2023-11-19T14:37:23;6.32;;;5.03;;
45208;SDS011;30951;43.994;26.260;2023-11-19T14:39:49;7.15;;;4.60;;
45208;SDS011;30951;43.994;26.260;2023-11-19T14:42:16;5.90;;;3.90;;
45208;SDS011;30951;43.994;26.260;2023-11-19T14:44:42;9.15;;;5.53;;
45208;SDS011;30951;43.994;26.260;2023-11-19T14:47:08;35.22;;;17.10;;
45208;SDS011;30951;43.994;26.260;2023-11-19T14:49:34;102.32;;;48.10;;
45208;SDS011;30951;43.994;26.260;2023-11-19T14:52:00;139.40;;;101.47;;
45208;SDS011;30951;43.994;26.260;2023-11-19T14:54:26;23.75;;;20.90;;